Estherville, Iowa
Current Conditions -  °F | °C
As of 10:52 AM on Wednesday 22 Oct 2014 (Local Time) from KEST Reporting Station
Clear Clear  
Wind Chill: 54°   Ceiling: Unl
Heat Index: 54°   Visibility: 10mi
Dew Point: 42°   Wind: 23mph
Humidity: 64%   Direction: 160°SSE
Pressure: 30.11"   Gusts: NA
Location:  43.4°N, 94.84°W
Report Text: KEST 221552Z AUTO 16020KT 10SM CLR 12/06 A3011 RMK AO2 PK WND 17031/1500 SLP199 T01220056
Loading
Personal Weather Stations






























Interactive Weather Map
Tropical Storm Tracking
New forecast layout! Learn more

10-Day Weather Forecast

Advertisements
Track Severe Weather on mobile